Time;durP1;ratioP1;P1;durP2;ratioP2;P2;SDS_P1;SDS_P2;PMS_P1;PMS_P2;Temp;Humidity;BMP_temperature;BMP_pressure;BME280_temperature;BME280_humidity;BME280_pressure;Samples;Min_cycle;Max_cycle;Signal;HPM_P1;HPM_P2
2022/09/04 00:02:24;;;;;;;24.85;22.23;;;;;;;;;;5109901;27;20298;-79
2022/09/04 00:05:04;;;;;;;23.50;21.27;;;;;;;;;;5117869;27;20161;-76
2022/09/04 00:07:29;;;;;;;;;;;;;;;;;;5119612;27;20059;-79
2022/09/04 00:10:10;;;;;;;23.40;21.07;;;;;;;;;;5116127;27;20427;-82
2022/09/04 00:12:47;;;;;;;23.90;21.65;;;;;;;;;;5116289;27;20030;-79
2022/09/04 00:15:18;;;;;;;23.90;21.50;;;;;;;;;;5109486;27;20462;-76
2022/09/04 00:17:48;;;;;;;26.05;21.42;;;;;;;;;;5108244;27;20054;-78
2022/09/04 00:20:27;;;;;;;25.25;22.55;;;;;;;;;;5107135;27;20039;-76
2022/09/04 00:22:55;;;;;;;27.13;23.43;;;;;;;;;;5106942;27;20037;-75
2022/09/04 00:25:28;;;;;;;26.83;24.23;;;;;;;;;;5108070;27;20293;-76
2022/09/04 00:28:03;;;;;;;26.13;23.38;;;;;;;;;;5108609;27;20434;-76
2022/09/04 00:30:29;;;;;;;26.75;23.88;;;;;;;;;;5109021;27;20148;-77
2022/09/04 00:33:01;;;;;;;25.80;23.33;;;;;;;;;;5106299;27;20034;-79
2022/09/04 00:35:30;;;;;;;25.70;23.23;;;;;;;;;;5116149;27;20442;-77
2022/09/04 00:37:55;;;;;;;26.73;24.25;;;;;;;;;;5118446;27;20077;-77
2022/09/04 00:40:25;;;;;;;26.92;24.13;;;;;;;;;;5117203;27;20430;-78
2022/09/04 00:43:05;;;;;;;25.65;23.15;;;;;;;;;;5116351;27;20043;-76
2022/09/04 00:45:32;;;;;;;;;;;;;;;;;;5117356;27;20784;-78
2022/09/04 00:48:12;;;;;;;21.73;19.63;;;;;;;;;;5117170;27;19911;-76
2022/09/04 00:51:04;;;;;;;22.95;20.42;;;;;;;;;;5118600;27;20122;-79
2022/09/04 00:53:48;;;;;;;25.77;23.05;;;;;;;;;;5108886;27;20043;-80
2022/09/04 00:56:14;;;;;;;23.77;21.30;;;;;;;;;;5117595;27;20031;-78
2022/09/04 00:58:55;;;;;;;29.77;23.83;;;;;;;;;;5115431;27;20035;-77
2022/09/04 01:01:22;;;;;;;26.58;23.98;;;;;;;;;;5094369;27;20046;-77
2022/09/04 01:03:58;;;;;;;26.40;23.70;;;;;;;;;;5117753;27;20039;-78
2022/09/04 01:06:28;;;;;;;26.88;24.17;;;;;;;;;;5108961;27;20418;-77
2022/09/04 01:08:58;;;;;;;26.23;23.55;;;;;;;;;;5113153;27;20070;-77
2022/09/04 01:11:42;;;;;;;24.73;22.23;;;;;;;;;;5115156;27;20015;-76
2022/09/04 01:14:16;;;;;;;24.42;21.10;;;;;;;;;;5115152;27;20038;-80
2022/09/04 01:16:47;;;;;;;23.23;20.92;;;;;;;;;;5114381;27;20019;-75
2022/09/04 01:19:15;;;;;;;24.75;20.88;;;;;;;;;;5111691;27;20084;-78
2022/09/04 01:21:40;;;;;;;23.98;21.67;;;;;;;;;;5116726;27;20026;-75
2022/09/04 01:24:18;;;;;;;23.40;21.08;;;;;;;;;;5115322;27;20039;-76
2022/09/04 01:26:47;;;;;;;23.60;21.20;;;;;;;;;;5114555;27;20019;-80
2022/09/04 01:29:27;;;;;;;22.55;20.35;;;;;;;;;;5119704;27;20031;-79
2022/09/04 01:32:00;;;;;;;22.13;19.65;;;;;;;;;;5117865;27;20087;-80
2022/09/04 01:34:49;;;;;;;21.98;19.77;;;;;;;;;;5113625;27;20369;-77
2022/09/04 01:37:29;;;;;;;22.67;20.37;;;;;;;;;;5114471;27;20023;-78
2022/09/04 01:40:01;;;;;;;23.63;21.13;;;;;;;;;;5116959;27;20687;-76
2022/09/04 01:42:32;;;;;;;23.58;21.05;;;;;;;;;;5114346;27;20070;-78
2022/09/04 01:44:58;;;;;;;25.42;20.90;;;;;;;;;;5114465;27;20045;-79
2022/09/04 01:47:35;;;;;;;23.35;21.13;;;;;;;;;;5095864;27;20031;-78
2022/09/04 01:50:11;;;;;;;23.33;20.90;;;;;;;;;;5108486;27;20023;-76
2022/09/04 01:52:36;;;;;;;24.50;21.90;;;;;;;;;;5114901;27;20033;-79
2022/09/04 01:55:02;;;;;;;23.95;21.50;;;;;;;;;;5115665;27;20031;-75
2022/09/04 01:57:30;;;;;;;26.70;21.42;;;;;;;;;;5115883;27;20056;-76
2022/09/04 02:00:16;;;;;;;23.35;21.20;;;;;;;;;;5115022;27;20031;-76
2022/09/04 02:02:53;;;;;;;23.60;21.15;;;;;;;;;;5111705;27;20031;-83
2022/09/04 02:05:37;;;;;;;22.65;20.25;;;;;;;;;;5117358;27;20134;-81
2022/09/04 02:08:12;;;;;;;25.38;22.05;;;;;;;;;;5113030;27;20024;-78
2022/09/04 02:10:37;;;;;;;22.40;20.30;;;;;;;;;;5115616;27;20451;-77
2022/09/04 02:13:16;;;;;;;22.77;20.48;;;;;;;;;;5116723;27;20066;-79
2022/09/04 02:15:54;;;;;;;21.67;19.40;;;;;;;;;;5116833;27;20103;-78
2022/09/04 02:18:34;;;;;;;24.33;19.75;;;;;;;;;;5096839;27;20088;-78
2022/09/04 02:21:06;;;;;;;21.45;19.30;;;;;;;;;;5115160;27;20111;-77
2022/09/04 02:23:44;;;;;;;20.70;18.50;;;;;;;;;;5107960;27;20035;-80
2022/09/04 02:26:18;;;;;;;23.13;19.58;;;;;;;;;;5114524;27;20023;-79
2022/09/04 02:29:10;;;;;;;24.38;19.50;;;;;;;;;;5111688;27;20026;-75
2022/09/04 02:31:41;;;;;;;22.92;19.50;;;;;;;;;;5111754;27;20043;-75
2022/09/04 02:34:08;;;;;;;22.98;20.48;;;;;;;;;;5114198;27;20163;-79
2022/09/04 02:36:34;;;;;;;21.38;19.23;;;;;;;;;;5116659;27;20083;-76
2022/09/04 02:39:05;;;;;;;20.67;18.58;;;;;;;;;;5115937;27;20061;-78
2022/09/04 02:41:37;;;;;;;22.83;19.60;;;;;;;;;;5118651;27;20130;-78
2022/09/04 02:44:11;;;;;;;21.63;19.35;;;;;;;;;;5111754;27;20415;-77
2022/09/04 02:46:57;;;;;;;22.20;20.00;;;;;;;;;;5110779;27;20026;-78
2022/09/04 02:49:34;;;;;;;21.45;19.23;;;;;;;;;;5100043;27;20469;-75
2022/09/04 02:52:12;;;;;;;24.52;21.92;;;;;;;;;;5114657;27;20027;-73
2022/09/04 02:54:43;;;;;;;24.55;21.30;;;;;;;;;;5111158;27;20032;-74
2022/09/04 02:57:28;;;;;;;24.48;21.83;;;;;;;;;;5104172;27;21123;-74
2022/09/04 02:59:53;;;;;;;23.77;21.33;;;;;;;;;;5111487;28;20324;-75
2022/09/04 03:02:27;;;;;;;26.27;23.33;;;;;;;;;;5104560;28;20031;-82
2022/09/04 03:04:59;;;;;;;27.13;23.75;;;;;;;;;;5111887;28;20534;-77
2022/09/04 03:07:35;;;;;;;26.75;23.67;;;;;;;;;;5114312;28;20059;-78
2022/09/04 03:10:09;;;;;;;26.45;23.70;;;;;;;;;;5111018;28;20082;-80
2022/09/04 03:12:39;;;;;;;23.52;21.05;;;;;;;;;;5116639;27;20458;-75
2022/09/04 03:15:19;;;;;;;25.27;20.83;;;;;;;;;;5119112;27;20033;-74
2022/09/04 03:17:54;;;;;;;22.05;19.42;;;;;;;;;;5119198;27;20028;-78
2022/09/04 03:20:26;;;;;;;24.15;19.13;;;;;;;;;;5116932;27;20123;-74
2022/09/04 03:22:54;;;;;;;22.27;19.90;;;;;;;;;;5111897;27;20049;-76
2022/09/04 03:25:42;;;;;;;27.55;20.83;;;;;;;;;;5116431;27;20108;-75
2022/09/04 03:28:11;;;;;;;29.17;19.63;;;;;;;;;;5119128;27;20037;-77
2022/09/04 03:30:38;;;;;;;24.95;19.85;;;;;;;;;;5116968;27;20564;-79
2022/09/04 03:33:13;;;;;;;23.42;20.77;;;;;;;;;;5118507;27;20102;-75
2022/09/04 03:35:47;;;;;;;24.95;20.42;;;;;;;;;;5117373;27;20102;-73
2022/09/04 03:38:37;;;;;;;28.30;21.02;;;;;;;;;;5118166;27;20149;-74
2022/09/04 03:41:28;;;;;;;28.00;22.90;;;;;;;;;;5120135;27;20464;-76
2022/09/04 03:44:12;;;;;;;28.42;22.88;;;;;;;;;;5116235;27;20040;-76
2022/09/04 03:46:50;;;;;;;34.65;28.33;;;;;;;;;;5099532;27;20027;-75
2022/09/04 03:49:16;;;;;;;48.80;38.05;;;;;;;;;;5119045;27;20024;-75
2022/09/04 03:51:47;;;;;;;61.78;34.00;;;;;;;;;;5117766;27;20050;-76
2022/09/04 03:54:24;;;;;;;51.65;29.23;;;;;;;;;;5115192;27;20023;-80
2022/09/04 03:57:10;;;;;;;38.05;25.65;;;;;;;;;;5107892;27;20027;-81
2022/09/04 03:59:36;;;;;;;42.67;27.85;;;;;;;;;;5109184;27;20058;-78
2022/09/04 04:02:27;;;;;;;61.25;29.92;;;;;;;;;;5105178;27;20062;-76
2022/09/04 04:04:53;;;;;;;119.25;30.92;;;;;;;;;;5102702;27;20031;-78
2022/09/04 04:07:18;;;;;;;94.90;31.33;;;;;;;;;;5105768;27;20057;-79
2022/09/04 04:09:58;;;;;;;74.35;31.48;;;;;;;;;;5117205;27;20381;-77
2022/09/04 04:12:44;;;;;;;82.55;31.58;;;;;;;;;;5113323;27;20403;-78
2022/09/04 04:15:09;;;;;;;102.70;32.92;;;;;;;;;;5067662;27;20051;-80
2022/09/04 04:18:01;;;;;;;76.72;31.92;;;;;;;;;;5119471;27;20027;-79
2022/09/04 04:20:29;;;;;;;65.22;31.30;;;;;;;;;;5112735;27;20055;-77
2022/09/04 04:23:09;;;;;;;43.92;30.58;;;;;;;;;;5113373;27;20458;-76
2022/09/04 04:25:49;;;;;;;53.00;28.05;;;;;;;;;;5097809;27;20164;-78
2022/09/04 04:28:27;;;;;;;36.88;27.10;;;;;;;;;;5085684;27;20096;-78
2022/09/04 04:30:58;;;;;;;59.63;29.63;;;;;;;;;;5110151;27;20106;-80
2022/09/04 04:33:27;;;;;;;44.55;30.08;;;;;;;;;;5117540;27;20054;-77
2022/09/04 04:36:11;;;;;;;47.35;30.65;;;;;;;;;;5118643;27;20042;-77
2022/09/04 04:38:40;;;;;;;53.70;28.38;;;;;;;;;;5101415;27;20039;-77
2022/09/04 04:41:08;;;;;;;47.25;28.90;;;;;;;;;;5117702;27;20095;-76
2022/09/04 04:43:57;;;;;;;75.63;30.45;;;;;;;;;;5112834;27;20416;-79
2022/09/04 04:46:41;;;;;;;57.58;28.88;;;;;;;;;;5100174;27;20047;-76
2022/09/04 04:49:32;;;;;;;48.67;31.15;;;;;;;;;;5114315;27;20430;-79
2022/09/04 04:52:17;;;;;;;46.47;29.42;;;;;;;;;;5109763;27;20047;-77
2022/09/04 04:54:50;;;;;;;44.78;30.83;;;;;;;;;;5115290;27;20361;-77
2022/09/04 04:57:18;;;;;;;48.67;30.85;;;;;;;;;;5117647;27;20023;-77
2022/09/04 05:00:06;;;;;;;42.15;29.45;;;;;;;;;;5114326;27;20499;-78
2022/09/04 05:02:38;;;;;;;39.25;27.58;;;;;;;;;;5113454;27;20098;-78
2022/09/04 05:05:12;;;;;;;36.58;28.83;;;;;;;;;;5112983;27;20092;-79
2022/09/04 05:08:03;;;;;;;33.45;27.38;;;;;;;;;;5116332;27;20019;-79
2022/09/04 05:10:35;;;;;;;41.47;29.70;;;;;;;;;;4995268;28;20380;-78
2022/09/04 05:13:03;;;;;;;36.97;28.75;;;;;;;;;;4995785;28;20038;-78
2022/09/04 05:15:39;;;;;;;36.72;28.40;;;;;;;;;;5013473;28;20049;-76
2022/09/04 05:18:10;;;;;;;38.25;28.77;;;;;;;;;;5016385;28;20028;-80
2022/09/04 05:20:47;;;;;;;37.75;31.17;;;;;;;;;;5017401;28;20467;-79
2022/09/04 05:23:31;;;;;;;34.40;28.30;;;;;;;;;;5018736;28;20036;-81
2022/09/04 05:26:00;;;;;;;37.80;29.52;;;;;;;;;;5015955;28;20057;-76
2022/09/04 05:28:26;;;;;;;37.92;28.70;;;;;;;;;;5008355;28;20046;-76
2022/09/04 05:30:57;;;;;;;38.53;29.92;;;;;;;;;;4997482;28;20043;-78
2022/09/04 05:33:29;;;;;;;32.92;28.20;;;;;;;;;;5013520;28;20098;-78
2022/09/04 05:35:54;;;;;;;36.70;29.42;;;;;;;;;;5019652;28;20404;-76
2022/09/04 05:38:46;;;;;;;38.10;29.65;;;;;;;;;;5014374;28;20473;-77
2022/09/04 05:41:12;;;;;;;39.15;30.90;;;;;;;;;;4962256;28;20053;-78
2022/09/04 05:43:37;;;;;;;79.43;70.05;;;;;;;;;;4964463;28;20050;-76
2022/09/04 05:46:12;;;;;;;37.90;30.88;;;;;;;;;;4966136;28;20042;-76
2022/09/04 05:48:40;;;;;;;37.38;29.33;;;;;;;;;;5032627;28;20043;-76
2022/09/04 05:51:24;;;;;;;36.45;28.38;;;;;;;;;;5035052;28;20043;-76
2022/09/04 05:53:56;;;;;;;34.97;25.55;;;;;;;;;;5034212;28;20036;-78
2022/09/04 05:56:24;;;;;;;31.83;24.50;;;;;;;;;;5029876;28;20108;-78
2022/09/04 05:58:58;;;;;;;34.60;26.30;;;;;;;;;;5021119;28;20112;-79
2022/09/04 06:01:30;;;;;;;34.55;27.42;;;;;;;;;;5025874;28;20453;-76
2022/09/04 06:04:13;;;;;;;36.72;26.83;;;;;;;;;;5031429;28;20108;-77
2022/09/04 06:06:50;;;;;;;36.92;26.35;;;;;;;;;;5033652;28;20076;-76
2022/09/04 06:09:31;;;;;;;31.45;26.75;;;;;;;;;;5021246;28;20052;-77
2022/09/04 06:12:03;;;;;;;34.67;27.48;;;;;;;;;;5032612;28;20480;-75
2022/09/04 06:14:35;;;;;;;34.35;27.27;;;;;;;;;;5033660;28;20040;-77
2022/09/04 06:17:04;;;;;;;37.97;27.65;;;;;;;;;;5037514;27;20039;-76
2022/09/04 06:19:55;;;;;;;34.60;27.60;;;;;;;;;;5089856;27;20107;-77
2022/09/04 06:22:26;;;;;;;36.92;28.08;;;;;;;;;;5091467;27;20037;-76
2022/09/04 06:25:15;;;;;;;34.20;27.77;;;;;;;;;;5107631;27;20136;-77
2022/09/04 06:27:58;;;;;;;37.25;27.65;;;;;;;;;;5096466;27;20106;-76
2022/09/04 06:30:28;;;;;;;35.63;27.25;;;;;;;;;;5106977;27;20092;-77
2022/09/04 06:33:11;;;;;;;38.00;29.38;;;;;;;;;;5101347;27;20031;-76
2022/09/04 06:36:14;;;;;;;32.85;26.23;;;;;;;;;;5117615;27;20130;-76
2022/09/04 06:38:55;;;;;;;39.78;27.77;;;;;;;;;;5020624;28;20048;-78
2022/09/04 06:41:32;;;;;;;33.78;27.55;;;;;;;;;;5028563;28;20026;-75
2022/09/04 06:44:16;;;;;;;32.38;27.42;;;;;;;;;;5032025;28;20844;-76
2022/09/04 06:47:07;;;;;;;31.15;26.75;;;;;;;;;;5028121;28;20107;-79
2022/09/04 06:49:35;;;;;;;30.52;26.13;;;;;;;;;;4948936;28;20358;-78
2022/09/04 06:52:24;;;;;;;31.10;26.67;;;;;;;;;;4950309;28;20877;-78
2022/09/04 06:54:59;;;;;;;29.42;25.70;;;;;;;;;;4950924;28;21126;-76
2022/09/04 06:57:30;;;;;;;30.95;26.85;;;;;;;;;;4949524;28;20399;-78
2022/09/04 07:00:09;;;;;;;29.38;23.80;;;;;;;;;;4954830;28;20026;-78
2022/09/04 07:02:34;;;;;;;29.77;25.50;;;;;;;;;;4951656;28;20035;-77
2022/09/04 07:05:09;;;;;;;28.98;25.38;;;;;;;;;;4951340;28;20045;-78
2022/09/04 07:07:41;;;;;;;30.17;24.75;;;;;;;;;;4946491;28;20041;-77
2022/09/04 07:10:10;;;;;;;32.28;27.25;;;;;;;;;;5017765;28;20053;-77
2022/09/04 07:12:51;;;;;;;31.98;25.27;;;;;;;;;;5028993;28;20055;-78
2022/09/04 07:15:35;;;;;;;31.45;25.42;;;;;;;;;;5036208;28;20044;-76
2022/09/04 07:18:19;;;;;;;30.73;25.40;;;;;;;;;;5027814;28;20246;-81
2022/09/04 07:21:03;;;;;;;28.33;25.02;;;;;;;;;;5030214;28;20112;-76
2022/09/04 07:23:29;;;;;;;30.23;26.10;;;;;;;;;;5032096;28;20357;-79
2022/09/04 07:26:04;;;;;;;30.48;25.20;;;;;;;;;;5056625;28;20050;-78
2022/09/04 07:28:29;;;;;;;27.90;23.70;;;;;;;;;;5093375;28;20032;-78
2022/09/04 07:31:04;;;;;;;29.83;26.63;;;;;;;;;;5083341;28;20056;-77
2022/09/04 07:33:41;;;;;;;29.35;26.20;;;;;;;;;;5090461;28;20022;-78
2022/09/04 07:36:07;;;;;;;26.80;23.95;;;;;;;;;;5094819;28;20319;-80
2022/09/04 07:38:51;;;;;;;36.20;27.95;;;;;;;;;;5095175;28;20114;-81
2022/09/04 07:41:34;;;;;;;31.05;27.75;;;;;;;;;;5095441;28;20397;-76
2022/09/04 07:44:15;;;;;;;27.85;24.90;;;;;;;;;;5077797;28;20035;-77
2022/09/04 07:46:47;;;;;;;28.73;25.67;;;;;;;;;;5065028;28;20027;-78
2022/09/04 07:49:28;;;;;;;30.98;27.50;;;;;;;;;;5066179;28;20057;-78
2022/09/04 07:51:57;;;;;;;28.63;25.60;;;;;;;;;;5066309;28;20035;-78
2022/09/04 07:54:42;;;;;;;26.48;22.77;;;;;;;;;;5065147;28;20028;-78
2022/09/04 07:57:13;;;;;;;26.15;23.45;;;;;;;;;;5066073;28;20036;-77
2022/09/04 07:59:38;;;;;;;26.33;23.63;;;;;;;;;;5071300;28;20106;-78
2022/09/04 08:02:06;;;;;;;24.15;21.65;;;;;;;;;;5074826;28;20107;-80
2022/09/04 08:04:32;;;;;;;26.13;23.35;;;;;;;;;;5078866;28;20051;-79
2022/09/04 08:07:04;;;;;;;28.13;24.33;;;;;;;;;;5071205;28;20039;-77
2022/09/04 08:09:38;;;;;;;26.08;23.50;;;;;;;;;;5068181;28;20339;-79
2022/09/04 08:12:07;;;;;;;30.63;27.40;;;;;;;;;;5069988;28;20024;-76
2022/09/04 08:14:51;;;;;;;31.20;28.17;;;;;;;;;;5067394;28;20032;-78
2022/09/04 08:17:24;;;;;;;26.80;23.40;;;;;;;;;;5070531;28;20019;-76
2022/09/04 08:19:49;;;;;;;25.15;22.42;;;;;;;;;;5074268;28;20512;-77
2022/09/04 08:22:24;;;;;;;27.25;22.52;;;;;;;;;;5079453;28;20028;-74
2022/09/04 08:25:03;;;;;;;22.65;20.35;;;;;;;;;;5076361;28;21198;-78
2022/09/04 08:27:34;;;;;;;23.80;21.50;;;;;;;;;;5074800;28;20382;-77
2022/09/04 08:30:05;;;;;;;26.27;22.30;;;;;;;;;;5070423;28;20450;-73
2022/09/04 08:32:49;;;;;;;23.88;21.40;;;;;;;;;;5069868;28;20719;-76
2022/09/04 08:35:33;;;;;;;22.13;19.83;;;;;;;;;;5071937;28;20513;-76
2022/09/04 08:37:58;;;;;;;20.80;18.80;;;;;;;;;;5080904;28;20026;-78
2022/09/04 08:40:42;;;;;;;23.40;20.98;;;;;;;;;;5070612;28;20028;-78
2022/09/04 08:43:16;;;;;;;23.27;20.75;;;;;;;;;;5091512;27;20063;-77
2022/09/04 08:45:50;;;;;;;24.88;22.52;;;;;;;;;;5096749;27;20050;-76
2022/09/04 08:48:36;;;;;;;21.10;18.92;;;;;;;;;;5097891;27;20027;-79
2022/09/04 08:51:08;;;;;;;22.30;20.10;;;;;;;;;;5108224;27;20100;-77
2022/09/04 08:53:36;;;;;;;19.80;17.83;;;;;;;;;;5112203;27;20084;-77
2022/09/04 08:56:17;;;;;;;23.00;20.65;;;;;;;;;;5116554;27;20027;-76
2022/09/04 08:58:57;;;;;;;20.45;18.45;;;;;;;;;;5114938;27;20459;-76
2022/09/04 09:01:35;;;;;;;19.25;17.42;;;;;;;;;;5113110;27;20046;-75
2022/09/04 09:04:19;;;;;;;15.05;13.63;;;;;;;;;;5102201;27;20130;-77
2022/09/04 09:06:47;;;;;;;12.40;11.27;;;;;;;;;;5102630;27;20027;-76
2022/09/04 09:09:19;;;;;;;9.13;8.32;;;;;;;;;;5099596;27;20035;-78
2022/09/04 09:11:59;;;;;;;10.00;9.13;;;;;;;;;;5098883;27;20047;-78
2022/09/04 09:14:37;;;;;;;8.80;8.02;;;;;;;;;;5094877;27;20418;-78
2022/09/04 09:17:03;;;;;;;8.95;8.02;;;;;;;;;;5100065;27;20104;-76
2022/09/04 09:19:36;;;;;;;7.88;7.18;;;;;;;;;;5105135;27;20140;-77
2022/09/04 09:22:04;;;;;;;7.55;6.93;;;;;;;;;;5100776;27;20371;-78
2022/09/04 09:24:42;;;;;;;7.97;7.20;;;;;;;;;;5101685;27;20046;-78
2022/09/04 09:27:26;;;;;;;7.20;6.57;;;;;;;;;;5104069;27;20132;-79
2022/09/04 09:29:54;;;;;;;7.65;6.85;;;;;;;;;;5102949;27;20411;-75
2022/09/04 09:32:39;;;;;;;7.03;6.53;;;;;;;;;;5101451;27;20482;-79
2022/09/04 09:35:08;;;;;;;7.07;6.53;;;;;;;;;;5067144;27;20462;-79
2022/09/04 09:37:52;;;;;;;7.05;6.45;;;;;;;;;;5096974;27;20368;-77
2022/09/04 09:40:24;;;;;;;7.00;6.50;;;;;;;;;;5117307;27;20124;-77
2022/09/04 09:42:53;;;;;;;7.07;6.45;;;;;;;;;;5118083;27;20050;-76
2022/09/04 09:45:18;;;;;;;6.57;5.97;;;;;;;;;;5118399;27;20047;-79
2022/09/04 09:48:10;;;;;;;7.85;6.35;;;;;;;;;;5110264;27;20027;-75
2022/09/04 09:50:44;;;;;;;6.13;5.55;;;;;;;;;;5123277;27;20035;-77
2022/09/04 09:53:16;;;;;;;5.82;5.40;;;;;;;;;;5122866;27;20114;-76
2022/09/04 09:55:41;;;;;;;6.07;5.57;;;;;;;;;;5120288;27;20365;-77
2022/09/04 09:58:17;;;;;;;6.47;5.88;;;;;;;;;;5113521;28;20015;-78
2022/09/04 10:00:49;;;;;;;5.80;5.40;;;;;;;;;;5096084;28;20338;-74
2022/09/04 10:03:33;;;;;;;6.40;5.80;;;;;;;;;;5113672;28;20155;-77
2022/09/04 10:06:08;;;;;;;6.50;6.00;;;;;;;;;;5109237;27;20043;-81
2022/09/04 10:09:06;;;;;;;5.75;5.35;;;;;;;;;;5114797;27;20023;-78
2022/09/04 10:11:31;;;;;;;6.72;6.13;;;;;;;;;;5041976;28;20123;-80
2022/09/04 10:13:56;;;;;;;6.05;5.55;;;;;;;;;;5037671;28;20127;-78
2022/09/04 10:16:48;;;;;;;7.25;6.55;;;;;;;;;;5036286;28;20360;-82
2022/09/04 10:19:35;;;;;;;7.63;6.90;;;;;;;;;;5017166;28;20041;-77
2022/09/04 10:22:10;;;;;;;15.20;12.02;;;;;;;;;;5029253;28;20453;-77
2022/09/04 10:24:38;;;;;;;7.47;6.68;;;;;;;;;;5042348;28;20052;-82
2022/09/04 10:27:19;;;;;;;9.13;6.78;;;;;;;;;;5045206;28;20434;-78
2022/09/04 10:30:02;;;;;;;12.85;11.25;;;;;;;;;;5048608;28;20169;-78
2022/09/04 10:32:30;;;;;;;7.07;6.47;;;;;;;;;;5049360;28;20158;-78
2022/09/04 10:35:09;;;;;;;7.00;6.25;;;;;;;;;;5045389;28;20109;-77
2022/09/04 10:37:34;;;;;;;;;;;;;;;;;;5033451;28;20131;-77
2022/09/04 10:40:39;;;;;;;7.70;7.00;;;;;;;;;;5036588;28;19980;-76
2022/09/04 10:43:23;;;;;;;8.85;7.97;;;;;;;;;;5038526;28;20817;-78
2022/09/04 10:45:51;;;;;;;8.88;8.10;;;;;;;;;;5043806;28;20135;-85
2022/09/04 10:48:37;;;;;;;8.33;7.53;;;;;;;;;;5102302;27;20389;-77
2022/09/04 10:51:08;;;;;;;7.47;6.78;;;;;;;;;;5107244;27;20259;-82
2022/09/04 10:53:40;;;;;;;6.78;6.18;;;;;;;;;;5100774;27;20031;-80
2022/09/04 10:56:18;;;;;;;6.40;5.80;;;;;;;;;;5101166;27;20027;-84
2022/09/04 10:58:46;;;;;;;6.43;5.93;;;;;;;;;;5106773;27;20450;-77
2022/09/04 11:01:12;;;;;;;8.00;6.27;;;;;;;;;;5107553;27;20616;-77
2022/09/04 11:03:43;;;;;;;5.95;5.47;;;;;;;;;;5108858;27;20028;-78
2022/09/04 11:06:28;;;;;;;6.32;5.78;;;;;;;;;;5115384;28;20031;-77
2022/09/04 11:09:05;;;;;;;5.60;5.05;;;;;;;;;;5113566;28;20083;-81
2022/09/04 11:11:39;;;;;;;6.70;6.00;;;;;;;;;;5112504;28;20479;-79
2022/09/04 11:14:27;;;;;;;7.13;6.07;;;;;;;;;;5115014;28;20023;-75
2022/09/04 11:16:59;;;;;;;6.57;5.90;;;;;;;;;;5109828;28;20131;-75
2022/09/04 11:19:43;;;;;;;6.85;5.95;;;;;;;;;;5101241;28;20027;-75
2022/09/04 11:22:33;;;;;;;8.10;6.82;;;;;;;;;;5110171;28;20051;-76
2022/09/04 11:25:17;;;;;;;6.40;5.90;;;;;;;;;;5115355;28;20193;-77
2022/09/04 11:27:52;;;;;;;6.65;5.90;;;;;;;;;;5111939;28;20038;-81
2022/09/04 11:30:19;;;;;;;6.20;5.70;;;;;;;;;;5114860;28;20058;-79
2022/09/04 11:32:51;;;;;;;6.70;6.10;;;;;;;;;;5112925;27;20155;-76
2022/09/04 11:35:35;;;;;;;7.10;5.80;;;;;;;;;;5111158;27;20110;-76
2022/09/04 11:38:07;;;;;;;7.22;5.90;;;;;;;;;;5105069;27;20114;-76
2022/09/04 11:40:54;;;;;;;5.93;5.43;;;;;;;;;;5119004;27;20087;-77
2022/09/04 11:43:29;;;;;;;6.68;6.00;;;;;;;;;;5073602;27;20187;-77
2022/09/04 11:46:00;;;;;;;6.68;6.07;;;;;;;;;;5120137;27;20469;-78
2022/09/04 11:48:49;;;;;;;6.72;6.00;;;;;;;;;;5119585;27;20061;-75
2022/09/04 11:51:38;;;;;;;6.57;5.97;;;;;;;;;;5089494;27;20047;-75
2022/09/04 11:54:26;;;;;;;7.88;6.10;;;;;;;;;;5119200;27;22743;-74
2022/09/04 11:56:55;;;;;;;6.70;6.13;;;;;;;;;;5104518;27;20371;-76
2022/09/04 11:59:20;;;;;;;7.28;6.57;;;;;;;;;;5099653;27;20080;-74
2022/09/04 12:01:50;;;;;;;6.20;5.70;;;;;;;;;;5119706;27;20034;-74
2022/09/04 12:04:34;;;;;;;6.68;6.18;;;;;;;;;;5113605;27;20034;-74
2022/09/04 12:07:05;;;;;;;7.15;6.55;;;;;;;;;;5097323;27;20019;-77
2022/09/04 12:09:31;;;;;;;7.03;6.32;;;;;;;;;;5099734;27;20023;-75
2022/09/04 12:12:15;;;;;;;6.60;6.10;;;;;;;;;;5098557;27;20039;-78
2022/09/04 12:14:48;;;;;;;6.75;6.15;;;;;;;;;;5098036;27;21270;-78
2022/09/04 12:17:24;;;;;;;6.53;5.97;;;;;;;;;;5103076;27;20104;-73
2022/09/04 12:20:04;;;;;;;6.55;6.00;;;;;;;;;;5105472;27;20077;-81
2022/09/04 12:22:50;;;;;;;6.47;5.97;;;;;;;;;;5101111;27;20026;-75
2022/09/04 12:25:15;;;;;;;7.43;6.72;;;;;;;;;;5099534;27;20054;-76
2022/09/04 12:27:56;;;;;;;6.78;6.20;;;;;;;;;;5104297;27;20054;-77
2022/09/04 12:30:24;;;;;;;7.22;6.63;;;;;;;;;;5098110;27;20049;-76
2022/09/04 12:33:08;;;;;;;7.00;6.40;;;;;;;;;;5099631;27;20027;-78
2022/09/04 12:35:42;;;;;;;7.85;7.25;;;;;;;;;;5102121;27;20119;-76
2022/09/04 12:38:23;;;;;;;7.93;7.25;;;;;;;;;;5099747;27;20453;-77
2022/09/04 12:40:57;;;;;;;8.13;7.47;;;;;;;;;;5104458;27;20019;-77
2022/09/04 12:43:28;;;;;;;7.85;7.25;;;;;;;;;;5112958;27;20350;-75
2022/09/04 12:46:13;;;;;;;8.52;7.82;;;;;;;;;;5120480;27;20357;-75
2022/09/04 12:48:41;;;;;;;7.63;7.03;;;;;;;;;;5118776;27;20420;-75
2022/09/04 12:51:23;;;;;;;8.60;7.90;;;;;;;;;;5109548;27;20110;-75
2022/09/04 12:53:54;;;;;;;8.55;7.95;;;;;;;;;;5096159;27;20019;-76
2022/09/04 12:56:34;;;;;;;9.35;8.55;;;;;;;;;;5094187;27;20068;-76
2022/09/04 12:59:00;;;;;;;9.43;8.73;;;;;;;;;;5097608;27;20050;-77
2022/09/04 13:01:41;;;;;;;9.52;8.68;;;;;;;;;;5098929;27;20023;-76
2022/09/04 13:04:10;;;;;;;9.05;8.25;;;;;;;;;;5095576;27;20058;-76
2022/09/04 13:06:38;;;;;;;9.50;8.80;;;;;;;;;;5095199;27;20462;-78
2022/09/04 13:09:16;;;;;;;9.77;8.98;;;;;;;;;;5096131;27;20497;-75
2022/09/04 13:11:44;;;;;;;9.82;8.98;;;;;;;;;;5097855;27;20027;-75
2022/09/04 13:14:16;;;;;;;9.70;8.80;;;;;;;;;;5097127;27;20023;-76
2022/09/04 13:16:53;;;;;;;9.80;8.82;;;;;;;;;;5099256;27;20034;-76
2022/09/04 13:19:22;;;;;;;9.98;9.07;;;;;;;;;;5099490;27;20027;-76
2022/09/04 13:21:57;;;;;;;10.60;9.50;;;;;;;;;;5099894;27;20045;-77
2022/09/04 13:24:41;;;;;;;10.75;9.65;;;;;;;;;;5100608;27;20042;-75
2022/09/04 13:27:15;;;;;;;9.93;9.02;;;;;;;;;;5096800;27;20475;-73
2022/09/04 13:29:50;;;;;;;10.45;9.55;;;;;;;;;;5097978;27;20083;-76
2022/09/04 13:32:15;;;;;;;8.52;7.85;;;;;;;;;;5096971;27;20039;-74
2022/09/04 13:35:00;;;;;;;9.93;9.13;;;;;;;;;;5095796;27;20477;-74
2022/09/04 13:37:44;;;;;;;9.15;8.35;;;;;;;;;;5093949;27;20023;-76
2022/09/04 13:40:11;;;;;;;9.43;8.52;;;;;;;;;;5099978;27;20035;-77
2022/09/04 13:42:42;;;;;;;8.80;7.95;;;;;;;;;;5097592;27;20351;-75
2022/09/04 13:45:10;;;;;;;9.48;8.68;;;;;;;;;;5120692;27;20031;-77
2022/09/04 13:47:48;;;;;;;9.30;8.60;;;;;;;;;;5119642;27;20026;-73
2022/09/04 13:50:19;;;;;;;9.48;8.57;;;;;;;;;;5096211;27;20027;-74
2022/09/04 13:52:50;;;;;;;9.43;8.60;;;;;;;;;;5097015;27;20023;-76
2022/09/04 13:55:22;;;;;;;8.38;7.68;;;;;;;;;;5096030;27;20038;-75
2022/09/04 13:58:11;;;;;;;9.05;8.35;;;;;;;;;;5098748;27;20088;-75
2022/09/04 14:00:44;;;;;;;8.73;7.93;;;;;;;;;;5113540;27;20038;-75
2022/09/04 14:03:12;;;;;;;8.98;8.23;;;;;;;;;;5106035;27;20437;-76
2022/09/04 14:05:38;;;;;;;8.93;8.15;;;;;;;;;;5111877;27;20043;-76
2022/09/04 14:08:05;;;;;;;8.25;7.55;;;;;;;;;;5101645;27;20075;-75
2022/09/04 14:10:39;;;;;;;8.40;7.60;;;;;;;;;;5100572;27;20126;-81
2022/09/04 14:13:24;;;;;;;8.80;8.07;;;;;;;;;;5096738;27;20049;-75
2022/09/04 14:16:00;;;;;;;9.80;7.97;;;;;;;;;;5100214;27;20031;-73
2022/09/04 14:18:44;;;;;;;8.52;7.82;;;;;;;;;;5103914;27;20028;-77
2022/09/04 14:21:33;;;;;;;8.77;8.07;;;;;;;;;;5104962;27;20038;-75
2022/09/04 14:24:21;;;;;;;8.63;7.82;;;;;;;;;;5076200;27;20101;-76
2022/09/04 14:26:53;;;;;;;8.00;7.30;;;;;;;;;;5101567;27;20043;-82
2022/09/04 14:29:20;;;;;;;7.20;6.60;;;;;;;;;;5107293;27;20030;-77
2022/09/04 14:32:17;;;;;;;7.80;7.15;;;;;;;;;;5112458;27;20023;-80
2022/09/04 14:35:07;;;;;;;7.30;6.70;;;;;;;;;;5008053;28;20045;-74
2022/09/04 14:37:47;;;;;;;6.88;6.30;;;;;;;;;;5005956;28;20583;-74
2022/09/04 14:40:14;;;;;;;6.95;6.35;;;;;;;;;;5007786;28;20084;-80
2022/09/04 14:42:44;;;;;;;6.88;6.30;;;;;;;;;;5003366;28;20227;-79
2022/09/04 14:45:29;;;;;;;7.25;6.55;;;;;;;;;;5013429;28;20049;-79
2022/09/04 14:48:02;;;;;;;7.15;6.38;;;;;;;;;;5013254;28;20068;-76
2022/09/04 14:50:29;;;;;;;7.63;6.82;;;;;;;;;;5012446;28;20333;-74
2022/09/04 14:53:06;;;;;;;7.38;6.78;;;;;;;;;;5012994;28;20041;-75
2022/09/04 14:55:33;;;;;;;6.82;6.18;;;;;;;;;;5011748;28;20033;-81
2022/09/04 14:57:58;;;;;;;7.05;6.35;;;;;;;;;;5006297;28;20037;-77
2022/09/04 15:00:24;;;;;;;6.93;6.28;;;;;;;;;;5008770;28;20480;-78
2022/09/04 15:02:55;;;;;;;7.55;6.78;;;;;;;;;;5009983;28;20097;-79
2022/09/04 15:05:21;;;;;;;7.30;6.60;;;;;;;;;;5004770;28;20053;-76
2022/09/04 15:07:51;;;;;;;8.65;7.75;;;;;;;;;;5005359;28;20029;-76
2022/09/04 15:10:25;;;;;;;7.43;6.70;;;;;;;;;;5017723;28;20417;-80
2022/09/04 15:12:53;;;;;;;8.23;7.53;;;;;;;;;;5086425;28;20035;-76
2022/09/04 15:15:21;;;;;;;11.40;7.60;;;;;;;;;;5107183;28;20958;-82
2022/09/04 15:17:50;;;;;;;7.53;6.83;;;;;;;;;;5107022;28;20031;-78